This is the latest recevied weather packets stored in our database for station/object KJ6APE. If no packets are shown the sender has not sent any weather packets the latest 10 day(s).
| Time | Temp. | Humidity | Pressure | Rain* | Wind** | Luminosity | Snow |
|---|---|---|---|---|---|---|---|
| 1777853638 | 17.22° C | 59% | 1012.6 hPa | 0 mm | - | 307 W/m² | - |
| 1777853335 | 17.22° C | 59% | 1012.7 hPa | 0 mm | - | 257 W/m² | - |
| 1777853032 | 17.22° C | 59% | 1012.8 hPa | 0 mm | - | 213 W/m² | - |
| 1777852729 | 17.78° C | 57% | 1012.9 hPa | 0 mm | - | 158 W/m² | - |
| 1777852427 | 18.89° C | 54% | 1012.8 hPa | 0 mm | - | 262 W/m² | - |
| 1777852124 | 18.33° C | 56% | 1012.7 hPa | 0 mm | - | 755 W/m² | - |
| 1777851822 | 18.33° C | 57% | 1012.6 hPa | 0 mm | - | 794 W/m² | - |
| 1777851519 | 17.78° C | 57% | 1012.5 hPa | 0 mm | - | 885 W/m² | - |
| 1777851215 | 17.78° C | 59% | 1012.6 hPa | 0 mm | - | 394 W/m² | - |
| 1777850912 | 17.78° C | 59% | 1012.4 hPa | 0 mm | - | 328 W/m² | - |
| 1777850609 | 18.33° C | 58% | 1012.5 hPa | 0 mm | - | 260 W/m² | - |
| 1777850307 | 17.78° C | 59% | 1012.6 hPa | 0 mm | - | 572 W/m² | - |
| 1777850004 | 17.22° C | 60% | 1012.5 hPa | 0 mm | - | 246 W/m² | - |
| 1777849700 | 17.22° C | 60% | 1012.5 hPa | 0 mm | - | 227 W/m² | - |
| 1777849397 | 17.78° C | 58% | 1012.3 hPa | 0 mm | - | 242 W/m² | - |
| 1777849095 | 17.78° C | 59% | 1012.5 hPa | 0 mm | - | 265 W/m² | - |
| 1777848790 | 17.78° C | 60% | 1012.3 hPa | 0 mm | - | 260 W/m² | - |
| 1777848487 | 17.78° C | 59% | 1012.4 hPa | 0 mm | - | 247 W/m² | - |
| 1777848184 | 17.78° C | 59% | 1012.6 hPa | 0 mm | - | 235 W/m² | - |
| 1777847882 | 18.33° C | 58% | 1012.5 hPa | 0 mm | - | 184 W/m² | - |
| 1777847579 | 18.89° C | 56% | 1012.6 hPa | 0 mm | - | 231 W/m² | - |
| 1777847275 | 18.89° C | 55% | 1012.5 hPa | 0 mm | - | 626 W/m² | - |
| 1777846973 | 18.89° C | 56% | 1012.6 hPa | 0 mm | - | 561 W/m² | - |
| 1777846671 | 18.33° C | 58% | 1012.8 hPa | 0 mm | - | 408 W/m² | - |
| 1777846369 | 17.78° C | 57% | 1012.8 hPa | 0 mm | - | 426 W/m² | - |
* Rain latest hour (hover to see other rain measurements)
** Current wind speed in m/s (hover to see current wind gust speed)